Buxfavourite — A8TQ4 — position and weather

sailwx.info

Track history (hours):
 
Tides and Currents Weather Stations Pressure Air Temp Water Temp Dewpoint Dewpoint Depression Visibility Wind Speed Wind Dir Waves Ship Positions

Buxfavourite

Last reported at 2017-Sep-19 22:25 UTC. Time now 2017-Sep-22 09:44 UTC.
Position N 23°41' E 118°13'.

Length 208 m; draft 8.4 m.

Type: Ship. MMSI: 636091848.

Date/timePositionNaut miles runAvg speedWind from/ knotsBaromVisibWave heightAir tempDewpointWater temp
2017-Sep-19 22:25N 23°41' E 118°13'1116.4
2017-Sep-19 21:46N 23°48' E 118°22'416.5
2017-Sep-19 21:30N 23°51' E 118°26'1016.5
2017-Sep-19 20:54N 23°56' E 118°35'1116.6
2017-Sep-19 20:14N 24°02' E 118°45'3617.2
2017-Sep-19 18:10N 24°23' E 119°17'2316.5
2017-Sep-19 16:48N 24°36' E 119°37'1516.9
2017-Sep-19 15:55N 24°45' E 119°50'1217.3
2017-Sep-19 15:13N 24°52' E 120°01'417.4
2017-Sep-19 15:00N 24°54' E 120°04'918.1
2017-Sep-19 14:30N 24°59' E 120°13'1018.0
2017-Sep-19 13:58N 25°05' E 120°21'917.8
2017-Sep-19 13:28N 25°10' E 120°29'  
2017-Sep-16 11:19N 34°07' E 134°58'516.4
2017-Sep-16 11:00N 34°12' E 134°58'1313.6
2017-Sep-16 10:04N 34°24' E 135°03'216.1
2017-Sep-16 09:55N 34°26' E 135°04'716.6
2017-Sep-16 09:30N 34°31' E 135°10'815.8
2017-Sep-16 09:00N 34°38' E 135°16'3 4.2
2017-Sep-16 08:19N 34°40' E 135°14'0 0.0
2017-Sep-16 07:49N 34°40' E 135°14'0 0.0
2017-Sep-16 07:25N 34°40' E 135°14'0 0.0
2017-Sep-16 07:00N 34°40' E 135°14'0 0.0
2017-Sep-16 06:30N 34°40' E 135°14'0 0.0
2017-Sep-16 06:00N 34°40' E 135°14'0 0.0
2017-Sep-16 05:30N 34°40' E 135°14'0 0.0
2017-Sep-16 04:41N 34°40' E 135°14'0 0.0
2017-Sep-16 04:29N 34°40' E 135°14'0 0.0
2017-Sep-16 03:53N 34°40' E 135°14'0 0.0
2017-Sep-16 03:23N 34°40' E 135°14'0 0.0
2017-Sep-16 02:53N 34°40' E 135°14'0 0.0
2017-Sep-16 02:28N 34°40' E 135°14'0 0.0
2017-Sep-16 01:58N 34°40' E 135°14'0 0.0
2017-Sep-16 01:22N 34°40' E 135°14'0 0.0
2017-Sep-16 00:52N 34°40' E 135°14'0 0.0
2017-Sep-16 00:22N 34°40' E 135°14'0 0.5
2017-Sep-16 00:00N 34°40' E 135°14'4 7.4
2017-Sep-15 23:30N 34°37' E 135°17'611.5
2017-Sep-15 23:00N 34°32' E 135°13'816.0
2017-Sep-15 22:30N 34°26' E 135°07'816.4
2017-Sep-15 22:00N 34°19' E 135°01'815.4
2017-Sep-15 21:30N 34°12' E 134°59'612.6
2017-Sep-15 21:00N 34°05' E 134°59'815.4
2017-Sep-15 20:31N 33°58' E 134°59'233 7.2
2017-Sep-14 12:01N 34°59' E 139°32'015.5
2017-Sep-14 11:59N 34°59' E 139°32'817.2
2017-Sep-14 11:30N 35°05' E 139°40'714.5
2017-Sep-14 11:00N 35°10' E 139°45'610.8
2017-Sep-14 10:30N 35°16' E 139°46'612.5
2017-Sep-14 10:00N 35°21' E 139°42'510.9
2017-Sep-14 09:30N 35°27' E 139°41'1 1.0
2017-Sep-14 08:58N 35°26' E 139°41'0 0.0
2017-Sep-14 08:30N 35°26' E 139°41'0 0.0
2017-Sep-14 08:00N 35°26' E 139°41'0 0.0
2017-Sep-14 07:30N 35°26' E 139°41'0 0.0
2017-Sep-14 07:00N 35°26' E 139°41'0 0.0
2017-Sep-14 06:30N 35°26' E 139°41'0 0.0
2017-Sep-14 05:59N 35°26' E 139°41'0 0.0
2017-Sep-14 05:29N 35°26' E 139°41'0 0.0
2017-Sep-14 04:59N 35°26' E 139°41'0 0.0
2017-Sep-14 04:29N 35°26' E 139°41'0 0.0
2017-Sep-14 03:58N 35°26' E 139°41'0 0.0
2017-Sep-14 03:28N 35°26' E 139°41'0 0.0
2017-Sep-14 02:58N 35°26' E 139°41'0 0.0
2017-Sep-14 02:28N 35°26' E 139°41'0 0.0
2017-Sep-14 01:58N 35°26' E 139°41'0 0.0
2017-Sep-14 01:30N 35°26' E 139°41'0 0.0
2017-Sep-14 01:00N 35°26' E 139°41'0 0.0
2017-Sep-14 00:30N 35°26' E 139°41'0 0.0
2017-Sep-14 00:00N 35°26' E 139°41'0 0.0
2017-Sep-13 23:30N 35°26' E 139°41'0 0.1
2017-Sep-13 23:00N 35°26' E 139°41'2 3.1
2017-Sep-13 22:31N 35°26' E 139°43'3 5.5
2017-Sep-13 22:01N 35°27' E 139°46'4 7.3
2017-Sep-13 21:31N 35°29' E 139°50'510.0
2017-Sep-13 21:00N 35°34' E 139°49'3 5.8
2017-Sep-13 20:31N 35°36' E 139°47'0 0.2
2017-Sep-13 20:00N 35°36' E 139°47'0 0.0
2017-Sep-13 19:27N 35°36' E 139°47'0 0.0
2017-Sep-13 18:59N 35°36' E 139°47'0 0.0
2017-Sep-13 18:29N 35°36' E 139°47'0 0.0
2017-Sep-13 17:59N 35°36' E 139°47'0 0.0
2017-Sep-13 17:26N 35°36' E 139°47'0 0.0
2017-Sep-13 16:59N 35°36' E 139°47'0 0.0
2017-Sep-13 16:28N 35°36' E 139°47'0 0.0
2017-Sep-13 15:58N 35°36' E 139°47'0 0.0
2017-Sep-13 15:28N 35°36' E 139°47'0 0.0
2017-Sep-13 14:58N 35°36' E 139°47'0 0.0
2017-Sep-13 14:30N 35°36' E 139°47'0 0.0
2017-Sep-13 14:00N 35°36' E 139°47'0 0.0
2017-Sep-13 13:30N 35°36' E 139°47'0 0.0
2017-Sep-13 13:00N 35°36' E 139°47'0 0.0
2017-Sep-13 12:30N 35°36' E 139°47'0 0.0
2017-Sep-13 11:56N 35°36' E 139°47'0 0.0
2017-Sep-13 11:29N 35°36' E 139°47'0 0.0
2017-Sep-13 10:56N 35°36' E 139°47'0 0.0
2017-Sep-13 10:26N 35°36' E 139°47'0 0.1
2017-Sep-13 10:01N 35°36' E 139°47'2 3.4
2017-Sep-13 09:30N 35°35' E 139°48'4 9.0
2017-Sep-13 09:01N 35°32' E 139°52'5 9.2
2017-Sep-13 08:31N 35°28' E 139°50'612.9
2017-Sep-13 08:01N 35°22' E 139°45'611.5
2017-Sep-13 07:31N 35°17' E 139°46'611.5
2017-Sep-13 07:00N 35°11' E 139°47'5 9.0
2017-Sep-13 06:30N 35°07' E 139°45'510.6
2017-Sep-13 06:00N 35°02' E 139°42'510.3
2017-Sep-13 05:30N 34°59' E 139°37'714.8
2017-Sep-13 05:00N 34°55' E 139°29'  
2017-Sep-10 09:06N 24°48' E 120°26'218.3
2017-Sep-10 09:00N 24°46' E 120°25'12217.7
2017-Sep-10 02:07N 22°46' E 120°01'218.0
2017-Sep-10 02:00N 22°44' E 120°02'816.9
2017-Sep-10 01:30N 22°38' E 120°08'714.2
2017-Sep-10 01:01N 22°33' E 120°13'510.2
2017-Sep-10 00:28N 22°33' E 120°19'0 0.4
2017-Sep-09 23:23N 22°34' E 120°19'0 0.0
2017-Sep-09 22:47N 22°34' E 120°19'0 0.0
2017-Sep-09 22:28N 22°34' E 120°19'  
Track history (hours):
 
Tides and Currents Weather Stations Pressure Air Temp Water Temp Dewpoint Dewpoint Depression Visibility Wind Speed Wind Dir Waves Ship Positions

Buxfavourite

Last reported at 2017-Sep-19 22:25 UTC. Time now 2017-Sep-22 09:44 UTC.
Position N 23°41' E 118°13'.

Length 208 m; draft 8.4 m.

Type: Ship. MMSI: 636091848.

Date/timePositionNaut miles runAvg speedWind from/ knotsBaromVisibWave heightAir tempDewpointWater temp
2017-Sep-19 22:25N 23°41' E 118°13'1116.4
2017-Sep-19 21:46N 23°48' E 118°22'416.5
2017-Sep-19 21:30N 23°51' E 118°26'1016.5
2017-Sep-19 20:54N 23°56' E 118°35'1116.6
2017-Sep-19 20:14N 24°02' E 118°45'3617.2
2017-Sep-19 18:10N 24°23' E 119°17'2316.5
2017-Sep-19 16:48N 24°36' E 119°37'1516.9
2017-Sep-19 15:55N 24°45' E 119°50'1217.3
2017-Sep-19 15:13N 24°52' E 120°01'417.4
2017-Sep-19 15:00N 24°54' E 120°04'918.1
2017-Sep-19 14:30N 24°59' E 120°13'1018.0
2017-Sep-19 13:58N 25°05' E 120°21'917.8
2017-Sep-19 13:28N 25°10' E 120°29'  
2017-Sep-16 11:19N 34°07' E 134°58'516.4
2017-Sep-16 11:00N 34°12' E 134°58'1313.6
2017-Sep-16 10:04N 34°24' E 135°03'216.1
2017-Sep-16 09:55N 34°26' E 135°04'716.6
2017-Sep-16 09:30N 34°31' E 135°10'815.8
2017-Sep-16 09:00N 34°38' E 135°16'3 4.2
2017-Sep-16 08:19N 34°40' E 135°14'0 0.0
2017-Sep-16 07:49N 34°40' E 135°14'0 0.0
2017-Sep-16 07:25N 34°40' E 135°14'0 0.0
2017-Sep-16 07:00N 34°40' E 135°14'0 0.0
2017-Sep-16 06:30N 34°40' E 135°14'0 0.0
2017-Sep-16 06:00N 34°40' E 135°14'0 0.0
2017-Sep-16 05:30N 34°40' E 135°14'0 0.0
2017-Sep-16 04:41N 34°40' E 135°14'0 0.0
2017-Sep-16 04:29N 34°40' E 135°14'0 0.0
2017-Sep-16 03:53N 34°40' E 135°14'0 0.0
2017-Sep-16 03:23N 34°40' E 135°14'0 0.0
2017-Sep-16 02:53N 34°40' E 135°14'0 0.0
2017-Sep-16 02:28N 34°40' E 135°14'0 0.0
2017-Sep-16 01:58N 34°40' E 135°14'0 0.0
2017-Sep-16 01:22N 34°40' E 135°14'0 0.0
2017-Sep-16 00:52N 34°40' E 135°14'0 0.0
2017-Sep-16 00:22N 34°40' E 135°14'0 0.5
2017-Sep-16 00:00N 34°40' E 135°14'4 7.4
2017-Sep-15 23:30N 34°37' E 135°17'611.5
2017-Sep-15 23:00N 34°32' E 135°13'816.0
2017-Sep-15 22:30N 34°26' E 135°07'816.4
2017-Sep-15 22:00N 34°19' E 135°01'815.4
2017-Sep-15 21:30N 34°12' E 134°59'612.6
2017-Sep-15 21:00N 34°05' E 134°59'815.4
2017-Sep-15 20:31N 33°58' E 134°59'233 7.2
2017-Sep-14 12:01N 34°59' E 139°32'015.5
2017-Sep-14 11:59N 34°59' E 139°32'817.2
2017-Sep-14 11:30N 35°05' E 139°40'714.5
2017-Sep-14 11:00N 35°10' E 139°45'610.8
2017-Sep-14 10:30N 35°16' E 139°46'612.5
2017-Sep-14 10:00N 35°21' E 139°42'510.9
2017-Sep-14 09:30N 35°27' E 139°41'1 1.0
2017-Sep-14 08:58N 35°26' E 139°41'0 0.0
2017-Sep-14 08:30N 35°26' E 139°41'0 0.0
2017-Sep-14 08:00N 35°26' E 139°41'0 0.0
2017-Sep-14 07:30N 35°26' E 139°41'0 0.0
2017-Sep-14 07:00N 35°26' E 139°41'0 0.0
2017-Sep-14 06:30N 35°26' E 139°41'0 0.0
2017-Sep-14 05:59N 35°26' E 139°41'0 0.0
2017-Sep-14 05:29N 35°26' E 139°41'0 0.0
2017-Sep-14 04:59N 35°26' E 139°41'0 0.0
2017-Sep-14 04:29N 35°26' E 139°41'0 0.0
2017-Sep-14 03:58N 35°26' E 139°41'0 0.0
2017-Sep-14 03:28N 35°26' E 139°41'0 0.0
2017-Sep-14 02:58N 35°26' E 139°41'0 0.0
2017-Sep-14 02:28N 35°26' E 139°41'0 0.0
2017-Sep-14 01:58N 35°26' E 139°41'0 0.0
2017-Sep-14 01:30N 35°26' E 139°41'0 0.0
2017-Sep-14 01:00N 35°26' E 139°41'0 0.0
2017-Sep-14 00:30N 35°26' E 139°41'0 0.0
2017-Sep-14 00:00N 35°26' E 139°41'0 0.0
2017-Sep-13 23:30N 35°26' E 139°41'0 0.1
2017-Sep-13 23:00N 35°26' E 139°41'2 3.1
2017-Sep-13 22:31N 35°26' E 139°43'3 5.5
2017-Sep-13 22:01N 35°27' E 139°46'4 7.3
2017-Sep-13 21:31N 35°29' E 139°50'510.0
2017-Sep-13 21:00N 35°34' E 139°49'3 5.8
2017-Sep-13 20:31N 35°36' E 139°47'0 0.2
2017-Sep-13 20:00N 35°36' E 139°47'0 0.0
2017-Sep-13 19:27N 35°36' E 139°47'0 0.0
2017-Sep-13 18:59N 35°36' E 139°47'0 0.0
2017-Sep-13 18:29N 35°36' E 139°47'0 0.0
2017-Sep-13 17:59N 35°36' E 139°47'0 0.0
2017-Sep-13 17:26N 35°36' E 139°47'0 0.0
2017-Sep-13 16:59N 35°36' E 139°47'0 0.0
2017-Sep-13 16:28N 35°36' E 139°47'0 0.0
2017-Sep-13 15:58N 35°36' E 139°47'0 0.0
2017-Sep-13 15:28N 35°36' E 139°47'0 0.0
2017-Sep-13 14:58N 35°36' E 139°47'0 0.0
2017-Sep-13 14:30N 35°36' E 139°47'0 0.0
2017-Sep-13 14:00N 35°36' E 139°47'0 0.0
2017-Sep-13 13:30N 35°36' E 139°47'0 0.0
2017-Sep-13 13:00N 35°36' E 139°47'0 0.0
2017-Sep-13 12:30N 35°36' E 139°47'0 0.0
2017-Sep-13 11:56N 35°36' E 139°47'0 0.0
2017-Sep-13 11:29N 35°36' E 139°47'0 0.0
2017-Sep-13 10:56N 35°36' E 139°47'0 0.0
2017-Sep-13 10:26N 35°36' E 139°47'0 0.1
2017-Sep-13 10:01N 35°36' E 139°47'2 3.4
2017-Sep-13 09:30N 35°35' E 139°48'4 9.0
2017-Sep-13 09:01N 35°32' E 139°52'5 9.2
2017-Sep-13 08:31N 35°28' E 139°50'612.9
2017-Sep-13 08:01N 35°22' E 139°45'611.5
2017-Sep-13 07:31N 35°17' E 139°46'611.5
2017-Sep-13 07:00N 35°11' E 139°47'5 9.0
2017-Sep-13 06:30N 35°07' E 139°45'510.6
2017-Sep-13 06:00N 35°02' E 139°42'510.3
2017-Sep-13 05:30N 34°59' E 139°37'714.8
2017-Sep-13 05:00N 34°55' E 139°29'  
2017-Sep-10 09:06N 24°48' E 120°26'218.3
2017-Sep-10 09:00N 24°46' E 120°25'12217.7
2017-Sep-10 02:07N 22°46' E 120°01'218.0
2017-Sep-10 02:00N 22°44' E 120°02'816.9
2017-Sep-10 01:30N 22°38' E 120°08'714.2
2017-Sep-10 01:01N 22°33' E 120°13'510.2
2017-Sep-10 00:28N 22°33' E 120°19'0 0.4
2017-Sep-09 23:23N 22°34' E 120°19'0 0.0
2017-Sep-09 22:47N 22°34' E 120°19'0 0.0
2017-Sep-09 22:28N 22°34' E 120°19'  

Dump ship's entire track history